sensor_id;sensor_type;location;lat;lon;timestamp;temperature;humidity
24402;DHT22;12539;48.808;11.292;2022-09-24T00:00:40;12.10;99.90
24402;DHT22;12539;48.808;11.292;2022-09-24T00:03:06;12.10;99.90
24402;DHT22;12539;48.808;11.292;2022-09-24T00:05:39;12.10;99.90
24402;DHT22;12539;48.808;11.292;2022-09-24T00:08:08;12.10;99.90
24402;DHT22;12539;48.808;11.292;2022-09-24T00:10:37;12.10;99.90
24402;DHT22;12539;48.808;11.292;2022-09-24T00:13:05;12.10;99.90
24402;DHT22;12539;48.808;11.292;2022-09-24T00:15:38;12.20;99.90
24402;DHT22;12539;48.808;11.292;2022-09-24T00:18:04;12.20;99.90
24402;DHT22;12539;48.808;11.292;2022-09-24T00:20:33;12.30;99.90
24402;DHT22;12539;48.808;11.292;2022-09-24T00:23:00;12.30;99.90
24402;DHT22;12539;48.808;11.292;2022-09-24T00:25:26;12.30;99.90
24402;DHT22;12539;48.808;11.292;2022-09-24T00:28:12;12.30;99.90
24402;DHT22;12539;48.808;11.292;2022-09-24T00:30:39;12.40;99.90
24402;DHT22;12539;48.808;11.292;2022-09-24T00:33:05;12.30;99.90
24402;DHT22;12539;48.808;11.292;2022-09-24T00:35:32;12.40;99.90
24402;DHT22;12539;48.808;11.292;2022-09-24T00:37:58;12.40;99.90
24402;DHT22;12539;48.808;11.292;2022-09-24T00:40:28;12.40;99.90
24402;DHT22;12539;48.808;11.292;2022-09-24T00:42:54;12.40;99.90
24402;DHT22;12539;48.808;11.292;2022-09-24T00:45:20;12.40;99.90
24402;DHT22;12539;48.808;11.292;2022-09-24T00:47:46;12.30;99.90
24402;DHT22;12539;48.808;11.292;2022-09-24T00:50:20;12.30;99.90
24402;DHT22;12539;48.808;11.292;2022-09-24T00:52:50;12.30;99.90
24402;DHT22;12539;48.808;11.292;2022-09-24T00:55:18;12.30;99.90
24402;DHT22;12539;48.808;11.292;2022-09-24T00:57:46;12.30;99.90
24402;DHT22;12539;48.808;11.292;2022-09-24T01:00:14;12.30;99.90
24402;DHT22;12539;48.808;11.292;2022-09-24T01:02:42;12.20;99.90
24402;DHT22;12539;48.808;11.292;2022-09-24T01:05:09;12.20;99.90
24402;DHT22;12539;48.808;11.292;2022-09-24T01:07:35;12.20;99.90
24402;DHT22;12539;48.808;11.292;2022-09-24T01:10:01;12.20;99.90
24402;DHT22;12539;48.808;11.292;2022-09-24T01:12:41;12.20;99.90
24402;DHT22;12539;48.808;11.292;2022-09-24T01:15:15;12.10;99.90
24402;DHT22;12539;48.808;11.292;2022-09-24T01:18:12;12.10;99.90
24402;DHT22;12539;48.808;11.292;2022-09-24T01:20:54;12.10;99.90
24402;DHT22;12539;48.808;11.292;2022-09-24T01:29:30;12.00;99.90
24402;DHT22;12539;48.808;11.292;2022-09-24T01:32:02;12.00;99.90
24402;DHT22;12539;48.808;11.292;2022-09-24T01:34:38;12.00;99.90
24402;DHT22;12539;48.808;11.292;2022-09-24T01:37:05;12.00;99.90
24402;DHT22;12539;48.808;11.292;2022-09-24T01:39:32;12.00;99.90
24402;DHT22;12539;48.808;11.292;2022-09-24T01:42:00;12.00;99.90
24402;DHT22;12539;48.808;11.292;2022-09-24T01:44:26;12.00;99.90
24402;DHT22;12539;48.808;11.292;2022-09-24T01:46:52;12.00;99.90
24402;DHT22;12539;48.808;11.292;2022-09-24T01:49:18;12.00;99.90
24402;DHT22;12539;48.808;11.292;2022-09-24T01:51:52;12.00;99.90
24402;DHT22;12539;48.808;11.292;2022-09-24T01:54:40;12.00;99.90
24402;DHT22;12539;48.808;11.292;2022-09-24T01:57:16;12.10;99.90
24402;DHT22;12539;48.808;11.292;2022-09-24T02:00:05;12.00;99.90
24402;DHT22;12539;48.808;11.292;2022-09-24T02:05:40;12.10;99.90
24402;DHT22;12539;48.808;11.292;2022-09-24T02:08:18;12.10;99.90
24402;DHT22;12539;48.808;11.292;2022-09-24T02:11:00;12.00;99.90
24402;DHT22;12539;48.808;11.292;2022-09-24T02:13:30;12.00;99.90
24402;DHT22;12539;48.808;11.292;2022-09-24T02:16:04;12.00;99.90
24402;DHT22;12539;48.808;11.292;2022-09-24T02:18:35;11.90;99.90
24402;DHT22;12539;48.808;11.292;2022-09-24T02:21:04;11.90;99.90
24402;DHT22;12539;48.808;11.292;2022-09-24T02:23:35;11.80;99.90
24402;DHT22;12539;48.808;11.292;2022-09-24T02:26:03;11.80;99.90
24402;DHT22;12539;48.808;11.292;2022-09-24T02:28:30;11.70;99.90
24402;DHT22;12539;48.808;11.292;2022-09-24T02:31:05;11.70;99.90
24402;DHT22;12539;48.808;11.292;2022-09-24T02:33:35;11.60;99.90
24402;DHT22;12539;48.808;11.292;2022-09-24T02:36:20;11.60;99.90
24402;DHT22;12539;48.808;11.292;2022-09-24T02:38:49;11.50;99.90
24402;DHT22;12539;48.808;11.292;2022-09-24T02:41:16;11.40;99.90
24402;DHT22;12539;48.808;11.292;2022-09-24T02:43:42;11.30;99.90
24402;DHT22;12539;48.808;11.292;2022-09-24T02:46:08;11.20;99.90
24402;DHT22;12539;48.808;11.292;2022-09-24T02:48:35;11.20;99.90
24402;DHT22;12539;48.808;11.292;2022-09-24T02:51:02;11.20;99.90
24402;DHT22;12539;48.808;11.292;2022-09-24T02:53:29;11.20;99.90
24402;DHT22;12539;48.808;11.292;2022-09-24T02:55:54;11.20;99.90
24402;DHT22;12539;48.808;11.292;2022-09-24T02:58:20;11.20;99.90
24402;DHT22;12539;48.808;11.292;2022-09-24T03:00:46;11.20;99.90
24402;DHT22;12539;48.808;11.292;2022-09-24T03:03:12;11.10;99.90
24402;DHT22;12539;48.808;11.292;2022-09-24T03:05:37;11.00;99.90
24402;DHT22;12539;48.808;11.292;2022-09-24T03:08:03;11.10;99.90
24402;DHT22;12539;48.808;11.292;2022-09-24T03:10:29;11.10;99.90
24402;DHT22;12539;48.808;11.292;2022-09-24T03:12:55;11.10;99.90
24402;DHT22;12539;48.808;11.292;2022-09-24T03:15:21;11.20;99.90
24402;DHT22;12539;48.808;11.292;2022-09-24T03:17:46;11.30;99.90
24402;DHT22;12539;48.808;11.292;2022-09-24T03:20:12;11.40;99.90
24402;DHT22;12539;48.808;11.292;2022-09-24T03:22:38;11.40;99.90
24402;DHT22;12539;48.808;11.292;2022-09-24T03:25:04;11.50;99.90
24402;DHT22;12539;48.808;11.292;2022-09-24T03:27:30;11.50;99.90
24402;DHT22;12539;48.808;11.292;2022-09-24T03:29:56;11.50;99.90
24402;DHT22;12539;48.808;11.292;2022-09-24T03:32:40;11.50;99.90
24402;DHT22;12539;48.808;11.292;2022-09-24T03:35:06;11.50;99.90
24402;DHT22;12539;48.808;11.292;2022-09-24T03:37:35;11.40;99.90
24402;DHT22;12539;48.808;11.292;2022-09-24T03:40:02;11.40;99.90
24402;DHT22;12539;48.808;11.292;2022-09-24T03:42:28;11.40;99.90
24402;DHT22;12539;48.808;11.292;2022-09-24T03:44:53;11.30;99.90
24402;DHT22;12539;48.808;11.292;2022-09-24T03:47:19;11.30;99.90
24402;DHT22;12539;48.808;11.292;2022-09-24T03:49:45;11.20;99.90
24402;DHT22;12539;48.808;11.292;2022-09-24T03:52:11;11.20;99.90
24402;DHT22;12539;48.808;11.292;2022-09-24T03:54:37;11.10;99.90
24402;DHT22;12539;48.808;11.292;2022-09-24T03:57:02;11.20;99.90
24402;DHT22;12539;48.808;11.292;2022-09-24T03:59:28;11.20;99.90
24402;DHT22;12539;48.808;11.292;2022-09-24T04:01:54;11.20;99.90
24402;DHT22;12539;48.808;11.292;2022-09-24T04:04:19;11.20;99.90
24402;DHT22;12539;48.808;11.292;2022-09-24T04:06:45;11.10;99.90
24402;DHT22;12539;48.808;11.292;2022-09-24T04:09:10;11.10;99.90
24402;DHT22;12539;48.808;11.292;2022-09-24T04:11:36;11.00;99.90
24402;DHT22;12539;48.808;11.292;2022-09-24T04:14:02;11.00;99.90
24402;DHT22;12539;48.808;11.292;2022-09-24T04:16:28;11.00;99.90
24402;DHT22;12539;48.808;11.292;2022-09-24T04:18:54;11.00;99.90
24402;DHT22;12539;48.808;11.292;2022-09-24T04:21:20;11.00;99.90
24402;DHT22;12539;48.808;11.292;2022-09-24T04:23:46;11.00;99.90
24402;DHT22;12539;48.808;11.292;2022-09-24T04:26:12;11.00;99.90
24402;DHT22;12539;48.808;11.292;2022-09-24T04:28:37;11.10;99.90
24402;DHT22;12539;48.808;11.292;2022-09-24T04:31:03;11.10;99.90
24402;DHT22;12539;48.808;11.292;2022-09-24T04:33:29;11.10;99.90
24402;DHT22;12539;48.808;11.292;2022-09-24T04:35:55;11.10;99.90
24402;DHT22;12539;48.808;11.292;2022-09-24T04:38:20;11.10;99.90
24402;DHT22;12539;48.808;11.292;2022-09-24T04:40:46;11.20;99.90
24402;DHT22;12539;48.808;11.292;2022-09-24T04:43:12;11.20;99.90
24402;DHT22;12539;48.808;11.292;2022-09-24T04:45:38;11.20;99.90
24402;DHT22;12539;48.808;11.292;2022-09-24T04:48:04;11.30;99.90
24402;DHT22;12539;48.808;11.292;2022-09-24T04:50:30;11.20;99.90
24402;DHT22;12539;48.808;11.292;2022-09-24T04:53:00;11.20;99.90
24402;DHT22;12539;48.808;11.292;2022-09-24T04:55:26;11.10;99.90
24402;DHT22;12539;48.808;11.292;2022-09-24T04:57:55;11.10;99.90
24402;DHT22;12539;48.808;11.292;2022-09-24T05:00:21;11.10;99.90
24402;DHT22;12539;48.808;11.292;2022-09-24T05:02:53;11.20;99.90
24402;DHT22;12539;48.808;11.292;2022-09-24T05:05:19;11.20;99.90
24402;DHT22;12539;48.808;11.292;2022-09-24T05:07:45;11.20;99.90
24402;DHT22;12539;48.808;11.292;2022-09-24T05:10:10;11.30;99.90
24402;DHT22;12539;48.808;11.292;2022-09-24T05:12:38;11.20;99.90
24402;DHT22;12539;48.808;11.292;2022-09-24T05:15:04;11.20;99.90
24402;DHT22;12539;48.808;11.292;2022-09-24T05:17:30;11.20;99.90
24402;DHT22;12539;48.808;11.292;2022-09-24T05:19:55;11.20;99.90
24402;DHT22;12539;48.808;11.292;2022-09-24T05:22:23;11.20;99.90
24402;DHT22;12539;48.808;11.292;2022-09-24T05:24:49;11.20;99.90
24402;DHT22;12539;48.808;11.292;2022-09-24T05:27:15;11.20;99.90
24402;DHT22;12539;48.808;11.292;2022-09-24T05:29:42;11.20;99.90
24402;DHT22;12539;48.808;11.292;2022-09-24T05:32:15;11.30;99.90
24402;DHT22;12539;48.808;11.292;2022-09-24T05:34:42;11.30;99.90
24402;DHT22;12539;48.808;11.292;2022-09-24T05:37:09;11.30;99.90
24402;DHT22;12539;48.808;11.292;2022-09-24T05:39:35;11.40;99.90
24402;DHT22;12539;48.808;11.292;2022-09-24T05:42:01;11.40;99.90
24402;DHT22;12539;48.808;11.292;2022-09-24T05:44:30;11.50;99.90
24402;DHT22;12539;48.808;11.292;2022-09-24T05:46:56;11.50;99.90
24402;DHT22;12539;48.808;11.292;2022-09-24T05:49:23;11.60;99.90
24402;DHT22;12539;48.808;11.292;2022-09-24T05:51:49;11.60;99.90
24402;DHT22;12539;48.808;11.292;2022-09-24T05:54:16;11.70;99.90
24402;DHT22;12539;48.808;11.292;2022-09-24T05:56:43;11.70;99.90
24402;DHT22;12539;48.808;11.292;2022-09-24T05:59:09;11.80;99.90
24402;DHT22;12539;48.808;11.292;2022-09-24T06:01:35;11.90;99.90
24402;DHT22;12539;48.808;11.292;2022-09-24T06:04:01;11.90;99.90
24402;DHT22;12539;48.808;11.292;2022-09-24T06:06:27;12.00;99.90
24402;DHT22;12539;48.808;11.292;2022-09-24T06:08:53;12.00;99.90
24402;DHT22;12539;48.808;11.292;2022-09-24T06:11:19;12.10;99.90
24402;DHT22;12539;48.808;11.292;2022-09-24T06:13:46;12.10;99.90
24402;DHT22;12539;48.808;11.292;2022-09-24T06:16:12;12.10;99.90
24402;DHT22;12539;48.808;11.292;2022-09-24T06:18:41;12.20;99.90
24402;DHT22;12539;48.808;11.292;2022-09-24T06:21:11;12.30;99.90
24402;DHT22;12539;48.808;11.292;2022-09-24T06:23:38;12.40;99.90
24402;DHT22;12539;48.808;11.292;2022-09-24T06:26:05;12.40;99.90
24402;DHT22;12539;48.808;11.292;2022-09-24T06:28:35;12.40;99.90
24402;DHT22;12539;48.808;11.292;2022-09-24T06:31:01;12.40;99.90
24402;DHT22;12539;48.808;11.292;2022-09-24T06:33:27;12.40;99.90
24402;DHT22;12539;48.808;11.292;2022-09-24T06:35:58;12.50;99.90
24402;DHT22;12539;48.808;11.292;2022-09-24T06:38:23;12.50;99.90
24402;DHT22;12539;48.808;11.292;2022-09-24T06:40:49;12.50;99.90
24402;DHT22;12539;48.808;11.292;2022-09-24T06:43:15;12.60;99.90
24402;DHT22;12539;48.808;11.292;2022-09-24T06:45:43;12.60;99.90
24402;DHT22;12539;48.808;11.292;2022-09-24T06:48:10;12.60;99.90
24402;DHT22;12539;48.808;11.292;2022-09-24T06:50:39;12.70;99.90
24402;DHT22;12539;48.808;11.292;2022-09-24T06:53:07;12.70;99.90
24402;DHT22;12539;48.808;11.292;2022-09-24T06:55:34;12.80;99.90
24402;DHT22;12539;48.808;11.292;2022-09-24T06:58:11;12.80;99.90
24402;DHT22;12539;48.808;11.292;2022-09-24T07:00:37;12.80;99.90
24402;DHT22;12539;48.808;11.292;2022-09-24T07:03:03;12.80;99.90
24402;DHT22;12539;48.808;11.292;2022-09-24T07:05:29;12.90;99.90
24402;DHT22;12539;48.808;11.292;2022-09-24T07:07:55;12.90;99.90
24402;DHT22;12539;48.808;11.292;2022-09-24T07:10:20;13.00;99.90
24402;DHT22;12539;48.808;11.292;2022-09-24T07:12:48;13.10;99.90
24402;DHT22;12539;48.808;11.292;2022-09-24T07:15:14;13.20;99.90
24402;DHT22;12539;48.808;11.292;2022-09-24T07:17:40;13.10;99.90
24402;DHT22;12539;48.808;11.292;2022-09-24T07:20:06;13.20;99.90
24402;DHT22;12539;48.808;11.292;2022-09-24T07:22:39;13.30;99.90
24402;DHT22;12539;48.808;11.292;2022-09-24T07:25:10;13.40;99.90
24402;DHT22;12539;48.808;11.292;2022-09-24T07:27:36;13.50;99.90
24402;DHT22;12539;48.808;11.292;2022-09-24T07:30:04;13.50;99.90
24402;DHT22;12539;48.808;11.292;2022-09-24T07:32:30;13.50;99.90
24402;DHT22;12539;48.808;11.292;2022-09-24T07:34:56;13.50;99.90
24402;DHT22;12539;48.808;11.292;2022-09-24T07:37:22;13.50;99.90
24402;DHT22;12539;48.808;11.292;2022-09-24T07:39:47;13.50;99.90
24402;DHT22;12539;48.808;11.292;2022-09-24T07:42:13;13.60;99.90
24402;DHT22;12539;48.808;11.292;2022-09-24T07:44:38;13.60;99.90
24402;DHT22;12539;48.808;11.292;2022-09-24T07:47:04;13.70;99.90
24402;DHT22;12539;48.808;11.292;2022-09-24T07:49:30;13.80;99.90
24402;DHT22;12539;48.808;11.292;2022-09-24T07:51:58;13.90;99.90
24402;DHT22;12539;48.808;11.292;2022-09-24T07:54:24;14.00;99.90
24402;DHT22;12539;48.808;11.292;2022-09-24T07:56:49;14.00;99.90
24402;DHT22;12539;48.808;11.292;2022-09-24T07:59:15;14.10;99.90
24402;DHT22;12539;48.808;11.292;2022-09-24T08:01:41;14.10;99.90
24402;DHT22;12539;48.808;11.292;2022-09-24T08:04:06;14.20;99.90
24402;DHT22;12539;48.808;11.292;2022-09-24T08:06:35;14.20;99.90
24402;DHT22;12539;48.808;11.292;2022-09-24T08:09:01;14.20;99.90
24402;DHT22;12539;48.808;11.292;2022-09-24T08:11:27;14.10;99.90
24402;DHT22;12539;48.808;11.292;2022-09-24T08:13:55;14.20;99.90
24402;DHT22;12539;48.808;11.292;2022-09-24T08:16:22;14.30;99.90
24402;DHT22;12539;48.808;11.292;2022-09-24T08:18:47;14.40;99.90
24402;DHT22;12539;48.808;11.292;2022-09-24T08:21:13;14.60;99.90
24402;DHT22;12539;48.808;11.292;2022-09-24T08:23:40;14.70;99.90
24402;DHT22;12539;48.808;11.292;2022-09-24T08:26:07;14.90;99.90
24402;DHT22;12539;48.808;11.292;2022-09-24T08:28:33;15.00;99.90
24402;DHT22;12539;48.808;11.292;2022-09-24T08:31:04;15.10;99.80
24402;DHT22;12539;48.808;11.292;2022-09-24T08:33:33;15.20;99.10
24402;DHT22;12539;48.808;11.292;2022-09-24T08:36:00;15.30;99.00
24402;DHT22;12539;48.808;11.292;2022-09-24T08:38:26;15.40;98.90
24402;DHT22;12539;48.808;11.292;2022-09-24T08:41:17;15.50;98.90
24402;DHT22;12539;48.808;11.292;2022-09-24T08:46:42;15.40;99.00
24402;DHT22;12539;48.808;11.292;2022-09-24T08:49:46;15.60;99.10
24402;DHT22;12539;48.808;11.292;2022-09-24T08:54:54;15.80;98.40
24402;DHT22;12539;48.808;11.292;2022-09-24T08:57:21;15.70;97.40
24402;DHT22;12539;48.808;11.292;2022-09-24T08:59:51;15.70;98.30
24402;DHT22;12539;48.808;11.292;2022-09-24T09:07:28;15.80;97.00
24402;DHT22;12539;48.808;11.292;2022-09-24T09:12:51;15.80;97.40
24402;DHT22;12539;48.808;11.292;2022-09-24T09:15:24;15.90;97.30
24402;DHT22;12539;48.808;11.292;2022-09-24T09:17:58;15.90;97.10
24402;DHT22;12539;48.808;11.292;2022-09-24T09:20:47;16.00;97.50
24402;DHT22;12539;48.808;11.292;2022-09-24T09:23:33;16.10;96.90
24402;DHT22;12539;48.808;11.292;2022-09-24T09:26:01;16.10;96.80
24402;DHT22;12539;48.808;11.292;2022-09-24T09:28:27;16.10;96.80
24402;DHT22;12539;48.808;11.292;2022-09-24T09:32:01;16.00;96.30
24402;DHT22;12539;48.808;11.292;2022-09-24T09:37:08;15.80;96.40
24402;DHT22;12539;48.808;11.292;2022-09-24T09:44:42;15.90;97.50
24402;DHT22;12539;48.808;11.292;2022-09-24T09:49:42;15.80;97.10
24402;DHT22;12539;48.808;11.292;2022-09-24T09:52:17;15.70;97.50
24402;DHT22;12539;48.808;11.292;2022-09-24T09:54:45;15.70;98.10
24402;DHT22;12539;48.808;11.292;2022-09-24T09:57:18;15.70;98.30
24402;DHT22;12539;48.808;11.292;2022-09-24T09:59:48;15.70;98.50
24402;DHT22;12539;48.808;11.292;2022-09-24T10:02:37;15.70;98.70
24402;DHT22;12539;48.808;11.292;2022-09-24T10:05:20;15.70;99.10
24402;DHT22;12539;48.808;11.292;2022-09-24T10:07:46;15.60;99.20
24402;DHT22;12539;48.808;11.292;2022-09-24T10:10:20;15.60;99.50
24402;DHT22;12539;48.808;11.292;2022-09-24T10:13:05;15.60;99.80
24402;DHT22;12539;48.808;11.292;2022-09-24T10:15:32;15.60;99.80
24402;DHT22;12539;48.808;11.292;2022-09-24T10:17:59;15.50;99.70
24402;DHT22;12539;48.808;11.292;2022-09-24T10:20:29;15.50;99.90
24402;DHT22;12539;48.808;11.292;2022-09-24T10:22:57;15.60;99.90
24402;DHT22;12539;48.808;11.292;2022-09-24T10:25:26;15.60;99.90
24402;DHT22;12539;48.808;11.292;2022-09-24T10:27:56;15.70;99.90
24402;DHT22;12539;48.808;11.292;2022-09-24T10:31:11;15.70;99.90
24402;DHT22;12539;48.808;11.292;2022-09-24T10:33:39;15.80;99.90
24402;DHT22;12539;48.808;11.292;2022-09-24T10:36:21;15.80;99.90
24402;DHT22;12539;48.808;11.292;2022-09-24T10:38:48;15.80;99.90
24402;DHT22;12539;48.808;11.292;2022-09-24T10:41:23;15.80;99.90
24402;DHT22;12539;48.808;11.292;2022-09-24T10:43:51;15.80;99.90
24402;DHT22;12539;48.808;11.292;2022-09-24T10:51:55;16.00;99.90
24402;DHT22;12539;48.808;11.292;2022-09-24T11:00:21;16.00;99.90
24402;DHT22;12539;48.808;11.292;2022-09-24T11:05:32;16.00;99.90
24402;DHT22;12539;48.808;11.292;2022-09-24T11:08:06;16.00;99.90
24402;DHT22;12539;48.808;11.292;2022-09-24T11:13:37;16.00;99.90
24402;DHT22;12539;48.808;11.292;2022-09-24T11:16:25;16.00;99.90
24402;DHT22;12539;48.808;11.292;2022-09-24T11:19:02;16.10;99.90
24402;DHT22;12539;48.808;11.292;2022-09-24T11:22:30;16.10;99.90
24402;DHT22;12539;48.808;11.292;2022-09-24T11:28:00;16.10;99.90
24402;DHT22;12539;48.808;11.292;2022-09-24T11:35:59;16.20;99.90
24402;DHT22;12539;48.808;11.292;2022-09-24T11:47:18;16.30;99.90
24402;DHT22;12539;48.808;11.292;2022-09-24T11:53:03;16.30;99.90
24402;DHT22;12539;48.808;11.292;2022-09-24T11:55:40;16.30;99.90
24402;DHT22;12539;48.808;11.292;2022-09-24T12:00:41;16.30;99.90
24402;DHT22;12539;48.808;11.292;2022-09-24T12:05:47;16.30;99.90
24402;DHT22;12539;48.808;11.292;2022-09-24T12:08:33;16.30;99.90
24402;DHT22;12539;48.808;11.292;2022-09-24T12:11:24;16.30;99.90
24402;DHT22;12539;48.808;11.292;2022-09-24T12:14:17;16.20;99.90
24402;DHT22;12539;48.808;11.292;2022-09-24T12:16:45;16.20;99.90
24402;DHT22;12539;48.808;11.292;2022-09-24T12:19:21;16.20;99.90
24402;DHT22;12539;48.808;11.292;2022-09-24T12:21:51;16.20;99.90
24402;DHT22;12539;48.808;11.292;2022-09-24T12:24:54;16.20;99.90
24402;DHT22;12539;48.808;11.292;2022-09-24T12:27:16;16.20;99.90
24402;DHT22;12539;48.808;11.292;2022-09-24T12:29:51;16.20;99.90
24402;DHT22;12539;48.808;11.292;2022-09-24T12:32:55;16.30;99.90
24402;DHT22;12539;48.808;11.292;2022-09-24T12:36:01;16.30;99.90
24402;DHT22;12539;48.808;11.292;2022-09-24T12:38:44;16.40;99.90
24402;DHT22;12539;48.808;11.292;2022-09-24T12:41:20;16.40;99.90
24402;DHT22;12539;48.808;11.292;2022-09-24T12:54:40;16.50;99.90
24402;DHT22;12539;48.808;11.292;2022-09-24T12:57:20;16.50;99.90
24402;DHT22;12539;48.808;11.292;2022-09-24T12:59:58;16.50;99.90
24402;DHT22;12539;48.808;11.292;2022-09-24T13:02:29;16.50;99.90
24402;DHT22;12539;48.808;11.292;2022-09-24T13:07:34;16.40;99.90
24402;DHT22;12539;48.808;11.292;2022-09-24T13:12:47;16.50;99.90
24402;DHT22;12539;48.808;11.292;2022-09-24T13:15:30;16.30;99.90
24402;DHT22;12539;48.808;11.292;2022-09-24T13:18:20;16.40;99.90
24402;DHT22;12539;48.808;11.292;2022-09-24T13:21:07;16.50;99.90
24402;DHT22;12539;48.808;11.292;2022-09-24T13:23:46;16.50;99.90
24402;DHT22;12539;48.808;11.292;2022-09-24T13:26:31;16.40;99.90
24402;DHT22;12539;48.808;11.292;2022-09-24T13:29:03;16.40;99.90
24402;DHT22;12539;48.808;11.292;2022-09-24T13:31:43;16.40;99.90
24402;DHT22;12539;48.808;11.292;2022-09-24T13:34:25;16.40;99.90
24402;DHT22;12539;48.808;11.292;2022-09-24T13:37:01;16.40;99.90
24402;DHT22;12539;48.808;11.292;2022-09-24T13:42:05;16.30;99.90
24402;DHT22;12539;48.808;11.292;2022-09-24T13:44:59;16.30;99.90
24402;DHT22;12539;48.808;11.292;2022-09-24T13:50:27;16.20;99.90
24402;DHT22;12539;48.808;11.292;2022-09-24T13:57:57;16.20;99.90
24402;DHT22;12539;48.808;11.292;2022-09-24T14:00:25;16.20;99.90
24402;DHT22;12539;48.808;11.292;2022-09-24T14:02:59;16.10;99.90
24402;DHT22;12539;48.808;11.292;2022-09-24T14:05:26;16.20;99.90
24402;DHT22;12539;48.808;11.292;2022-09-24T14:08:17;16.20;99.90
24402;DHT22;12539;48.808;11.292;2022-09-24T14:10:45;16.30;99.90
24402;DHT22;12539;48.808;11.292;2022-09-24T14:13:23;16.20;99.90
24402;DHT22;12539;48.808;11.292;2022-09-24T14:18:18;16.20;99.90
24402;DHT22;12539;48.808;11.292;2022-09-24T14:20:44;16.30;99.90
24402;DHT22;12539;48.808;11.292;2022-09-24T14:23:18;16.20;99.90
24402;DHT22;12539;48.808;11.292;2022-09-24T14:25:46;16.20;99.90
24402;DHT22;12539;48.808;11.292;2022-09-24T14:28:13;16.20;99.90
24402;DHT22;12539;48.808;11.292;2022-09-24T14:30:49;16.10;99.90
24402;DHT22;12539;48.808;11.292;2022-09-24T14:33:16;16.10;99.90
24402;DHT22;12539;48.808;11.292;2022-09-24T14:35:46;16.00;99.90
24402;DHT22;12539;48.808;11.292;2022-09-24T14:38:25;16.00;99.90
24402;DHT22;12539;48.808;11.292;2022-09-24T14:40:57;15.90;99.90
24402;DHT22;12539;48.808;11.292;2022-09-24T14:46:31;15.80;99.90
24402;DHT22;12539;48.808;11.292;2022-09-24T14:49:18;15.80;99.90
24402;DHT22;12539;48.808;11.292;2022-09-24T14:52:01;15.90;99.90
24402;DHT22;12539;48.808;11.292;2022-09-24T14:54:36;15.80;99.90
24402;DHT22;12539;48.808;11.292;2022-09-24T14:57:36;15.90;99.90
24402;DHT22;12539;48.808;11.292;2022-09-24T15:00:18;16.00;99.90
24402;DHT22;12539;48.808;11.292;2022-09-24T15:05:16;16.00;99.90
24402;DHT22;12539;48.808;11.292;2022-09-24T15:07:42;16.10;99.90
24402;DHT22;12539;48.808;11.292;2022-09-24T15:10:18;16.20;99.90
24402;DHT22;12539;48.808;11.292;2022-09-24T15:12:46;16.20;99.90
24402;DHT22;12539;48.808;11.292;2022-09-24T15:17:42;16.30;99.90
24402;DHT22;12539;48.808;11.292;2022-09-24T15:20:10;16.30;99.90
24402;DHT22;12539;48.808;11.292;2022-09-24T15:22:36;16.30;99.90
24402;DHT22;12539;48.808;11.292;2022-09-24T15:25:02;16.30;99.90
24402;DHT22;12539;48.808;11.292;2022-09-24T15:27:36;16.30;99.90
24402;DHT22;12539;48.808;11.292;2022-09-24T15:30:03;16.30;99.90
24402;DHT22;12539;48.808;11.292;2022-09-24T15:32:31;16.20;99.90
24402;DHT22;12539;48.808;11.292;2022-09-24T15:34:58;16.20;99.90
24402;DHT22;12539;48.808;11.292;2022-09-24T15:37:26;16.20;99.90
24402;DHT22;12539;48.808;11.292;2022-09-24T15:39:56;16.10;99.90
24402;DHT22;12539;48.808;11.292;2022-09-24T15:42:26;16.10;99.90
24402;DHT22;12539;48.808;11.292;2022-09-24T15:44:52;16.00;99.90
24402;DHT22;12539;48.808;11.292;2022-09-24T15:47:19;16.00;99.90
24402;DHT22;12539;48.808;11.292;2022-09-24T15:49:45;16.00;99.90
24402;DHT22;12539;48.808;11.292;2022-09-24T15:52:14;16.00;99.90
24402;DHT22;12539;48.808;11.292;2022-09-24T15:54:49;16.00;99.90
24402;DHT22;12539;48.808;11.292;2022-09-24T15:57:15;16.00;99.90
24402;DHT22;12539;48.808;11.292;2022-09-24T15:59:41;16.00;99.90
24402;DHT22;12539;48.808;11.292;2022-09-24T16:02:21;16.00;99.90
24402;DHT22;12539;48.808;11.292;2022-09-24T16:04:47;15.90;99.90
24402;DHT22;12539;48.808;11.292;2022-09-24T16:07:13;15.90;99.90
24402;DHT22;12539;48.808;11.292;2022-09-24T16:09:39;15.80;99.90
24402;DHT22;12539;48.808;11.292;2022-09-24T16:12:05;15.80;99.90
24402;DHT22;12539;48.808;11.292;2022-09-24T16:14:31;15.80;99.90
24402;DHT22;12539;48.808;11.292;2022-09-24T16:16:57;15.80;99.90
24402;DHT22;12539;48.808;11.292;2022-09-24T16:19:22;15.80;99.90
24402;DHT22;12539;48.808;11.292;2022-09-24T16:21:48;15.80;99.90
24402;DHT22;12539;48.808;11.292;2022-09-24T16:24:16;15.80;99.90
24402;DHT22;12539;48.808;11.292;2022-09-24T16:26:42;15.80;99.90
24402;DHT22;12539;48.808;11.292;2022-09-24T16:29:08;15.70;99.90
24402;DHT22;12539;48.808;11.292;2022-09-24T16:31:36;15.80;99.90
24402;DHT22;12539;48.808;11.292;2022-09-24T16:34:02;15.70;99.90
24402;DHT22;12539;48.808;11.292;2022-09-24T16:36:28;15.70;99.90
24402;DHT22;12539;48.808;11.292;2022-09-24T16:38:54;15.70;99.90
24402;DHT22;12539;48.808;11.292;2022-09-24T16:41:21;15.70;99.90
24402;DHT22;12539;48.808;11.292;2022-09-24T16:43:46;15.60;99.90
24402;DHT22;12539;48.808;11.292;2022-09-24T16:46:12;15.60;99.90
24402;DHT22;12539;48.808;11.292;2022-09-24T16:48:38;15.60;99.90
24402;DHT22;12539;48.808;11.292;2022-09-24T16:51:08;15.60;99.90
24402;DHT22;12539;48.808;11.292;2022-09-24T16:53:35;15.60;99.90
24402;DHT22;12539;48.808;11.292;2022-09-24T16:56:03;15.60;99.90
24402;DHT22;12539;48.808;11.292;2022-09-24T16:58:30;15.60;99.90
24402;DHT22;12539;48.808;11.292;2022-09-24T17:00:57;15.50;99.90
24402;DHT22;12539;48.808;11.292;2022-09-24T17:03:22;15.60;99.90
24402;DHT22;12539;48.808;11.292;2022-09-24T17:05:48;15.50;99.90
24402;DHT22;12539;48.808;11.292;2022-09-24T17:08:14;15.50;99.90
24402;DHT22;12539;48.808;11.292;2022-09-24T17:10:50;15.50;99.90
24402;DHT22;12539;48.808;11.292;2022-09-24T17:13:16;15.50;99.90
24402;DHT22;12539;48.808;11.292;2022-09-24T17:15:42;15.50;99.90
24402;DHT22;12539;48.808;11.292;2022-09-24T17:18:09;15.50;99.90
24402;DHT22;12539;48.808;11.292;2022-09-24T17:20:34;15.50;99.90
24402;DHT22;12539;48.808;11.292;2022-09-24T17:23:00;15.50;99.90
24402;DHT22;12539;48.808;11.292;2022-09-24T17:25:26;15.50;99.90
24402;DHT22;12539;48.808;11.292;2022-09-24T17:27:52;15.50;99.90